createdAt,value
2022-09-05T00:02:02.806Z,19.40
2022-09-05T00:04:57.223Z,18.70
2022-09-05T00:07:58.478Z,18.70
2022-09-05T00:10:37.484Z,18.70
2022-09-05T00:13:26.614Z,18.70
2022-09-05T00:16:33.389Z,18.70
2022-09-05T00:24:20.081Z,18.70
2022-09-05T00:24:33.161Z,18.70
2022-09-05T00:25:41.890Z,18.60
2022-09-05T00:28:26.023Z,18.70
2022-09-05T00:31:56.364Z,18.70
2022-09-05T00:34:08.674Z,18.70
2022-09-05T00:36:45.723Z,18.70
2022-09-05T00:39:26.528Z,18.60
2022-09-05T00:41:57.778Z,18.70
2022-09-05T00:44:27.286Z,18.70
2022-09-05T00:47:23.203Z,18.70
2022-09-05T00:49:59.931Z,18.70
2022-09-05T00:53:07.006Z,18.70
2022-09-05T00:56:01.441Z,18.70
2022-09-05T00:59:04.149Z,18.60
2022-09-05T01:01:39.065Z,18.60
2022-09-05T01:04:24.983Z,18.60
2022-09-05T01:07:14.539Z,18.60
2022-09-05T01:09:57.032Z,18.60
2022-09-05T01:12:42.522Z,18.60
2022-09-05T01:15:32.160Z,18.60
2022-09-05T01:18:19.589Z,18.60
2022-09-05T01:20:55.987Z,18.60
2022-09-05T01:23:36.130Z,18.60
2022-09-05T01:26:21.062Z,18.60
2022-09-05T01:29:15.631Z,18.60
2022-09-05T01:32:03.537Z,18.60
2022-09-05T01:34:42.234Z,18.60
2022-09-05T01:37:33.491Z,18.50
2022-09-05T01:40:19.786Z,18.50
2022-09-05T01:43:11.058Z,18.50
2022-09-05T01:46:11.572Z,18.50
2022-09-05T01:48:54.587Z,18.50
2022-09-05T01:51:47.733Z,18.50
2022-09-05T01:54:54.085Z,18.50
2022-09-05T01:57:59.301Z,18.50
2022-09-05T02:00:49.355Z,18.50
2022-09-05T02:03:21.503Z,18.50
2022-09-05T02:06:11.886Z,18.50
2022-09-05T02:08:53.641Z,18.50
2022-09-05T02:11:37.313Z,18.50
2022-09-05T02:14:10.656Z,18.40
2022-09-05T02:16:38.170Z,18.40
2022-09-05T02:19:06.749Z,18.40
2022-09-05T02:21:33.532Z,18.40
2022-09-05T02:24:26.456Z,18.50
2022-09-05T02:27:35.880Z,18.40
2022-09-05T02:30:16.176Z,18.50
2022-09-05T02:33:20.238Z,18.50
2022-09-05T02:36:07.361Z,18.40
2022-09-05T02:45:03.549Z,18.40
2022-09-05T02:45:17.100Z,18.40
2022-09-05T02:45:25.488Z,18.40
2022-09-05T02:48:23.449Z,18.40
2022-09-05T02:57:20.245Z,18.40
2022-09-05T02:57:24.610Z,18.40
2022-09-05T02:58:06.431Z,18.40
2022-09-05T02:59:46.082Z,18.30
2022-09-05T03:02:30.987Z,18.30
2022-09-05T03:05:12.936Z,18.30
2022-09-05T03:07:39.635Z,18.30
2022-09-05T03:10:53.268Z,18.40
2022-09-05T03:13:30.555Z,18.30
2022-09-05T03:16:07.733Z,18.30
2022-09-05T03:18:53.254Z,18.40
2022-09-05T03:21:38.094Z,18.30
2022-09-05T03:24:23.485Z,18.30
2022-09-05T03:27:23.789Z,18.30
2022-09-05T03:30:02.094Z,18.40
2022-09-05T03:33:03.164Z,18.30
2022-09-05T03:35:49.268Z,18.30
2022-09-05T03:38:38.144Z,18.30
2022-09-05T03:41:33.902Z,18.30
2022-09-05T03:44:20.841Z,18.30
2022-09-05T03:46:53.636Z,18.30
2022-09-05T03:51:41.745Z,18.30
2022-09-05T03:57:19.944Z,18.70
2022-09-05T03:57:22.569Z,18.30
2022-09-05T03:58:56.773Z,18.20
2022-09-05T04:03:21.562Z,18.20
2022-09-05T04:08:18.068Z,18.20
2022-09-05T04:08:18.633Z,18.30
2022-09-05T04:10:45.742Z,18.20
2022-09-05T04:13:27.038Z,18.20
2022-09-05T04:16:11.112Z,18.20
2022-09-05T04:18:41.917Z,18.20
2022-09-05T04:21:13.840Z,18.20
2022-09-05T04:24:05.177Z,18.20
2022-09-05T04:26:47.970Z,18.20
2022-09-05T04:29:39.730Z,18.20
2022-09-05T04:32:31.291Z,18.20
2022-09-05T04:35:07.046Z,18.20
2022-09-05T04:37:48.046Z,18.20
2022-09-05T04:40:33.052Z,18.20
2022-09-05T04:43:05.775Z,18.20
2022-09-05T04:45:37.557Z,18.20
2022-09-05T04:48:06.948Z,18.20
2022-09-05T04:51:03.191Z,18.20
2022-09-05T04:54:01.468Z,18.20
2022-09-05T04:56:35.315Z,18.20
2022-09-05T05:01:46.037Z,18.30
2022-09-05T05:06:02.017Z,18.30
2022-09-05T05:06:14.078Z,18.30
2022-09-05T05:08:29.163Z,18.30
2022-09-05T05:17:56.011Z,18.30
2022-09-05T05:18:02.406Z,18.40
2022-09-05T05:18:10.384Z,18.40
2022-09-05T05:20:42.044Z,18.40
2022-09-05T05:23:16.625Z,18.40
2022-09-05T05:25:51.913Z,18.40
2022-09-05T05:28:30.794Z,18.40
2022-09-05T05:31:15.450Z,18.50
2022-09-05T05:33:46.781Z,18.50
2022-09-05T05:36:20.590Z,18.50
2022-09-05T05:38:53.451Z,18.60
2022-09-05T05:41:34.931Z,18.60
2022-09-05T05:44:14.891Z,18.70
2022-09-05T05:46:47.571Z,18.80
2022-09-05T05:49:41.692Z,18.80
2022-09-05T05:52:35.573Z,18.90
2022-09-05T05:55:51.810Z,19.00
2022-09-05T05:58:59.872Z,19.10
2022-09-05T06:02:02.976Z,19.20
2022-09-05T06:04:51.485Z,19.30
2022-09-05T06:09:11.398Z,19.40
2022-09-05T06:14:51.045Z,19.50
2022-09-05T06:14:58.707Z,19.60
2022-09-05T06:16:52.236Z,19.70
2022-09-05T06:19:54.537Z,19.70
2022-09-05T06:22:50.319Z,19.80
2022-09-05T06:25:32.612Z,20.30
2022-09-05T06:28:18.344Z,19.90
2022-09-05T06:31:31.267Z,19.90
2022-09-05T06:34:33.455Z,19.90
2022-09-05T06:37:29.460Z,20.00
2022-09-05T06:40:05.763Z,20.00
2022-09-05T06:42:50.297Z,20.10
2022-09-05T06:45:27.535Z,20.20
2022-09-05T06:48:07.046Z,20.30
2022-09-05T06:51:08.118Z,20.50
2022-09-05T06:53:56.825Z,20.70
2022-09-05T06:56:29.244Z,20.90
2022-09-05T06:59:35.756Z,21.00
2022-09-05T07:02:08.636Z,21.20
2022-09-05T07:05:37.117Z,21.40
2022-09-05T07:07:36.743Z,21.50
2022-09-05T07:10:34.641Z,21.60
2022-09-05T07:13:22.387Z,21.70
2022-09-05T07:16:02.183Z,22.00
2022-09-05T07:18:43.649Z,21.90
2022-09-05T07:21:26.813Z,22.50
2022-09-05T07:24:11.055Z,22.70
2022-09-05T07:26:53.832Z,22.80
2022-09-05T07:29:32.241Z,22.90
2022-09-05T07:32:00.018Z,22.80
2022-09-05T07:34:31.611Z,22.80
2022-09-05T07:37:20.828Z,22.80
2022-09-05T07:39:54.677Z,22.80
2022-09-05T07:42:26.830Z,22.80
2022-09-05T07:45:00.911Z,22.80
2022-09-05T07:47:31.028Z,22.90
2022-09-05T07:51:21.555Z,22.90
2022-09-05T07:56:52.514Z,23.10
2022-09-05T07:57:05.036Z,23.00
2022-09-05T07:58:39.757Z,23.30
2022-09-05T08:01:08.799Z,23.30
2022-09-05T08:03:35.598Z,23.40
2022-09-05T08:06:05.687Z,23.50
2022-09-05T08:09:20.449Z,23.50
2022-09-05T08:11:37.801Z,23.60
2022-09-05T08:14:44.218Z,23.70
2022-09-05T08:16:59.531Z,23.80
2022-09-05T08:19:38.240Z,23.90
2022-09-05T08:22:06.188Z,24.00
2022-09-05T08:24:38.110Z,24.10
2022-09-05T08:27:19.050Z,24.10
2022-09-05T08:30:24.604Z,24.20
2022-09-05T08:33:10.476Z,24.20
2022-09-05T08:35:44.622Z,24.30
2022-09-05T08:38:14.061Z,24.30
2022-09-05T08:41:04.311Z,24.40
2022-09-05T08:46:04.496Z,24.50
2022-09-05T08:46:46.453Z,24.50
2022-09-05T08:49:44.003Z,24.50
2022-09-05T08:52:21.989Z,24.60
2022-09-05T08:55:13.357Z,24.60
2022-09-05T08:57:46.490Z,24.70
2022-09-05T09:00:24.150Z,24.80
2022-09-05T09:03:08.893Z,24.90
2022-09-05T09:06:08.499Z,25.00
2022-09-05T09:08:56.719Z,25.10
2022-09-05T09:11:23.386Z,25.10
2022-09-05T09:13:56.102Z,25.00
2022-09-05T09:16:52.441Z,24.90
2022-09-05T09:19:48.506Z,24.90
2022-09-05T09:22:53.566Z,24.90
2022-09-05T09:25:30.732Z,24.90
2022-09-05T09:28:48.785Z,24.90
2022-09-05T09:31:13.163Z,25.00
2022-09-05T09:33:52.043Z,25.00
2022-09-05T09:36:59.549Z,25.00
2022-09-05T09:40:10.581Z,25.10
2022-09-05T09:42:51.274Z,25.10
2022-09-05T09:45:45.238Z,25.20
2022-09-05T09:48:36.653Z,25.20
2022-09-05T09:51:34.905Z,25.30
2022-09-05T09:54:20.086Z,25.30
2022-09-05T09:57:18.243Z,25.40
2022-09-05T09:59:54.676Z,25.50
2022-09-05T10:04:51.289Z,25.50
2022-09-05T10:10:40.320Z,25.60
2022-09-05T10:11:21.554Z,25.60
2022-09-05T10:12:11.991Z,25.60
2022-09-05T10:15:02.612Z,25.50
2022-09-05T10:17:50.325Z,25.50
2022-09-05T10:20:35.457Z,25.50
2022-09-05T10:23:24.092Z,25.50
2022-09-05T10:26:31.002Z,25.50
2022-09-05T10:29:38.055Z,25.60
2022-09-05T10:35:09.783Z,25.50
2022-09-05T10:35:21.092Z,25.50
2022-09-05T10:37:58.454Z,25.50
2022-09-05T10:40:27.088Z,25.70
2022-09-05T10:43:29.869Z,25.80
2022-09-05T10:45:56.670Z,26.00
2022-09-05T10:48:27.138Z,26.00
2022-09-05T10:51:38.642Z,26.10
2022-09-05T10:54:38.065Z,26.00
2022-09-05T10:57:34.699Z,25.90
2022-09-05T11:02:23.584Z,25.90
2022-09-05T11:02:53.937Z,26.00
2022-09-05T11:05:36.513Z,26.00
2022-09-05T11:08:32.252Z,26.10
2022-09-05T11:11:28.429Z,26.10
2022-09-05T11:14:26.299Z,26.20
2022-09-05T11:17:23.531Z,26.30
2022-09-05T11:20:05.309Z,26.30
2022-09-05T11:22:39.629Z,26.50
2022-09-05T11:25:40.579Z,26.30
2022-09-05T11:28:17.443Z,26.00
2022-09-05T11:30:50.899Z,25.90
2022-09-05T11:39:46.019Z,26.10
2022-09-05T11:40:07.144Z,26.20
2022-09-05T11:40:29.249Z,26.00
2022-09-05T11:42:53.388Z,26.00
2022-09-05T11:45:43.949Z,26.00
2022-09-05T11:48:11.595Z,26.00
2022-09-05T11:51:06.191Z,26.00
2022-09-05T11:54:13.802Z,25.90
2022-09-05T11:57:33.384Z,25.80
2022-09-05T12:00:32.742Z,26.00
2022-09-05T12:03:59.730Z,26.30
2022-09-05T12:06:30.993Z,26.60
2022-09-05T12:09:06.292Z,27.00
2022-09-05T12:11:55.141Z,26.80
2022-09-05T12:14:49.341Z,27.00
2022-09-05T12:17:41.963Z,27.20
2022-09-05T12:20:22.120Z,27.30
2022-09-05T12:23:19.574Z,27.30
2022-09-05T12:27:39.893Z,27.30
2022-09-05T12:29:33.394Z,27.20
2022-09-05T12:33:56.688Z,26.90
2022-09-05T12:36:12.660Z,27.00
2022-09-05T12:39:59.600Z,27.00
2022-09-05T12:42:09.961Z,27.10
2022-09-05T12:44:42.166Z,27.30
2022-09-05T12:47:00.155Z,27.40
2022-09-05T12:50:02.636Z,27.40
2022-09-05T12:52:33.650Z,27.40
2022-09-05T12:55:19.354Z,27.40
2022-09-05T13:01:31.949Z,27.50
2022-09-05T13:03:06.075Z,27.50
2022-09-05T13:03:37.916Z,27.40
2022-09-05T13:06:25.261Z,27.40
2022-09-05T13:08:59.890Z,27.40
2022-09-05T13:14:48.431Z,27.40
2022-09-05T13:15:07.985Z,27.40
2022-09-05T13:17:13.870Z,27.50
2022-09-05T13:19:45.656Z,27.50
2022-09-05T13:22:14.854Z,27.50
2022-09-05T13:24:44.827Z,27.40
2022-09-05T13:27:14.719Z,27.40
2022-09-05T13:31:24.843Z,27.40
2022-09-05T13:37:58.025Z,27.50
2022-09-05T13:37:59.035Z,27.60
2022-09-05T13:38:48.128Z,27.50
2022-09-05T13:41:27.844Z,27.40
2022-09-05T13:44:00.308Z,27.10
2022-09-05T13:47:30.862Z,26.80
2022-09-05T13:50:17.326Z,26.40
2022-09-05T13:52:49.845Z,26.30
2022-09-05T13:55:21.952Z,26.10
2022-09-05T13:58:00.044Z,26.00
2022-09-05T14:00:34.949Z,26.00
2022-09-05T14:03:40.132Z,25.90
2022-09-05T14:06:47.411Z,25.80
2022-09-05T14:09:38.524Z,25.80
2022-09-05T14:12:29.254Z,25.80
2022-09-05T14:15:15.758Z,25.80
2022-09-05T14:18:20.179Z,25.80
2022-09-05T14:21:17.321Z,25.80
2022-09-05T14:23:54.097Z,25.80
2022-09-05T14:26:33.375Z,25.70
2022-09-05T14:29:00.015Z,25.70
2022-09-05T14:37:34.845Z,25.70
2022-09-05T14:38:00.874Z,25.70
2022-09-05T14:38:11.499Z,25.60
2022-09-05T14:41:02.929Z,25.60
2022-09-05T14:43:53.565Z,25.60
2022-09-05T14:46:53.247Z,25.70
2022-09-05T14:49:49.420Z,25.70
2022-09-05T14:52:23.590Z,25.60
2022-09-05T15:02:42.984Z,25.50
2022-09-05T15:02:54.798Z,25.50
2022-09-05T15:06:33.337Z,25.40
2022-09-05T15:10:49.772Z,25.40
2022-09-05T15:12:23.479Z,25.30
2022-09-05T15:14:36.558Z,25.30
2022-09-05T15:17:05.104Z,25.10
2022-09-05T15:20:05.805Z,25.10
2022-09-05T15:22:35.957Z,25.00
2022-09-05T15:25:21.347Z,25.10
2022-09-05T15:27:49.517Z,25.10
2022-09-05T15:30:35.545Z,25.20
2022-09-05T15:33:25.644Z,25.20
2022-09-05T15:35:53.072Z,25.20
2022-09-05T15:38:55.156Z,25.20
2022-09-05T15:41:28.107Z,25.20
2022-09-05T15:44:11.756Z,25.10
2022-09-05T15:46:51.429Z,25.00
2022-09-05T15:49:24.181Z,24.90
2022-09-05T15:51:52.775Z,24.80
2022-09-05T15:54:49.730Z,24.70
2022-09-05T15:57:34.724Z,24.70
2022-09-05T16:00:07.946Z,24.80
2022-09-05T16:02:43.547Z,24.90
2022-09-05T16:10:29.255Z,24.90
2022-09-05T16:10:48.602Z,25.00
2022-09-05T16:14:39.426Z,25.10
2022-09-05T16:23:13.424Z,25.10
2022-09-05T16:23:17.947Z,25.10
2022-09-05T16:23:28.980Z,25.10
2022-09-05T16:25:55.110Z,25.30
2022-09-05T16:28:30.748Z,25.40
2022-09-05T16:31:04.755Z,25.50
2022-09-05T16:33:33.876Z,25.60
2022-09-05T16:36:17.233Z,25.70
2022-09-05T16:38:56.908Z,25.80
2022-09-05T16:41:48.401Z,25.80
2022-09-05T16:44:21.113Z,25.80
2022-09-05T16:47:25.514Z,25.70
2022-09-05T16:49:58.706Z,25.70
2022-09-05T16:52:53.725Z,25.60
2022-09-05T16:55:29.656Z,25.40
2022-09-05T16:58:18.906Z,25.30
2022-09-05T17:00:52.481Z,25.20
2022-09-05T17:03:28.850Z,25.10
2022-09-05T17:06:26.173Z,25.00
2022-09-05T17:09:00.830Z,25.00
2022-09-05T17:12:00.816Z,25.00
2022-09-05T17:14:34.863Z,25.00
2022-09-05T17:18:18.992Z,25.00
2022-09-05T17:20:21.290Z,25.00
2022-09-05T17:29:15.584Z,24.90
2022-09-05T17:29:43.155Z,24.80
2022-09-05T17:29:49.404Z,24.90
2022-09-05T17:31:54.221Z,24.80
2022-09-05T17:35:16.577Z,24.80
2022-09-05T17:37:53.584Z,24.70
2022-09-05T17:40:57.182Z,24.70
2022-09-05T17:43:33.140Z,24.70
2022-09-05T17:46:12.496Z,24.50
2022-09-05T17:49:18.347Z,24.40
2022-09-05T17:51:51.362Z,24.30
2022-09-05T17:54:29.749Z,24.10
2022-09-05T17:56:56.506Z,23.90
2022-09-05T17:59:24.927Z,23.70
2022-09-05T18:02:06.740Z,23.70
2022-09-05T18:04:53.775Z,23.50
2022-09-05T18:07:26.551Z,23.40
2022-09-05T18:10:14.649Z,23.30
2022-09-05T18:15:34.634Z,23.00
2022-09-05T18:24:00.208Z,22.90
2022-09-05T18:26:28.409Z,22.70
2022-09-05T18:29:14.913Z,22.60
2022-09-05T18:31:42.736Z,22.60
2022-09-05T18:34:13.835Z,22.50
2022-09-05T18:36:42.524Z,22.50
2022-09-05T18:39:38.231Z,22.40
2022-09-05T18:42:25.607Z,22.40
2022-09-05T18:45:15.082Z,22.30
2022-09-05T18:47:58.025Z,22.30
2022-09-05T18:50:29.371Z,22.30
2022-09-05T18:53:09.290Z,22.20
2022-09-05T18:56:13.363Z,22.20
2022-09-05T18:58:30.001Z,22.10
2022-09-05T19:00:57.466Z,22.10
2022-09-05T19:03:30.017Z,22.00
2022-09-05T19:06:35.271Z,22.00
2022-09-05T19:08:54.170Z,22.00
2022-09-05T19:11:32.457Z,22.00
2022-09-05T19:14:26.116Z,22.00
2022-09-05T19:17:33.737Z,21.90
2022-09-05T19:20:31.743Z,21.90
2022-09-05T19:23:11.144Z,21.80
2022-09-05T19:25:44.582Z,21.80
2022-09-05T19:36:33.249Z,21.80
2022-09-05T19:36:54.775Z,21.80
2022-09-05T19:36:55.834Z,21.80
2022-09-05T19:37:30.306Z,21.80
2022-09-05T19:44:47.596Z,21.80
2022-09-05T19:47:33.938Z,21.70
2022-09-05T19:47:35.662Z,21.70
2022-09-05T19:48:26.481Z,22.30
2022-09-05T19:50:58.856Z,21.70
2022-09-05T19:53:25.942Z,21.70
2022-09-05T19:55:53.709Z,21.70
2022-09-05T19:58:22.352Z,21.60
2022-09-05T20:01:08.437Z,21.60
2022-09-05T20:03:40.909Z,21.50
2022-09-05T20:06:32.854Z,21.50
2022-09-05T20:09:20.188Z,21.40
2022-09-05T20:11:52.313Z,21.30
2022-09-05T20:14:30.821Z,21.30
2022-09-05T20:17:01.424Z,21.30
2022-09-05T20:19:31.928Z,21.30
2022-09-05T20:22:10.042Z,20.90
2022-09-05T20:24:49.548Z,21.30
2022-09-05T20:27:17.139Z,21.30
2022-09-05T20:29:55.843Z,21.30
2022-09-05T20:32:38.530Z,21.20
2022-09-05T20:39:26.487Z,21.20
2022-09-05T20:43:20.076Z,21.20
2022-09-05T20:43:31.960Z,21.10
2022-09-05T20:43:58.289Z,21.10
2022-09-05T20:52:49.039Z,21.10
2022-09-05T20:54:14.294Z,21.10
2022-09-05T20:54:21.139Z,21.10
2022-09-05T20:55:40.211Z,21.10
2022-09-05T20:58:15.671Z,21.20
2022-09-05T21:01:19.889Z,21.20
2022-09-05T21:03:37.924Z,21.30
2022-09-05T21:06:33.853Z,21.30
2022-09-05T21:09:26.099Z,21.40
2022-09-05T21:11:54.841Z,21.40
2022-09-05T21:14:23.239Z,21.40
2022-09-05T21:16:58.705Z,21.40
2022-09-05T21:19:30.806Z,21.40
2022-09-05T21:22:07.141Z,21.50
2022-09-05T21:24:33.958Z,21.50
2022-09-05T21:27:36.234Z,21.50
2022-09-05T21:30:23.535Z,21.50
2022-09-05T21:33:07.166Z,21.60
2022-09-05T21:35:42.058Z,21.60
2022-09-05T21:38:14.019Z,21.60
2022-09-05T21:40:42.309Z,21.60
2022-09-05T21:44:40.835Z,21.60
2022-09-05T21:47:49.162Z,21.60
2022-09-05T21:48:46.374Z,21.60
2022-09-05T21:51:15.860Z,21.60
2022-09-05T21:55:19.560Z,21.50
2022-09-05T21:59:26.136Z,21.50
2022-09-05T21:59:46.662Z,21.50
2022-09-05T22:02:15.569Z,21.40
2022-09-05T22:04:42.868Z,21.80
2022-09-05T22:07:16.251Z,21.40
2022-09-05T22:09:55.277Z,21.40
2022-09-05T22:12:30.657Z,21.30
2022-09-05T22:15:10.134Z,21.30
2022-09-05T22:17:45.796Z,21.30
2022-09-05T22:20:14.857Z,21.30
2022-09-05T22:22:41.673Z,21.30
2022-09-05T22:25:19.532Z,21.30
2022-09-05T22:28:18.960Z,21.30
2022-09-05T22:30:45.636Z,21.30
2022-09-05T22:33:12.994Z,21.30
2022-09-05T22:35:40.243Z,21.30
2022-09-05T22:38:12.456Z,21.20
2022-09-05T22:40:41.178Z,21.20
2022-09-05T22:43:09.818Z,21.20
2022-09-05T22:45:37.872Z,21.20
2022-09-05T22:48:10.068Z,21.20
2022-09-05T22:50:37.425Z,21.20
2022-09-05T22:53:06.965Z,21.20
2022-09-05T22:55:39.505Z,21.30
2022-09-05T22:58:07.504Z,21.20
2022-09-05T23:00:34.591Z,21.30
2022-09-05T23:03:03.411Z,21.20
2022-09-05T23:05:31.571Z,21.20
2022-09-05T23:08:02.743Z,21.20
2022-09-05T23:10:30.258Z,21.20
2022-09-05T23:12:57.360Z,21.20
2022-09-05T23:15:24.758Z,21.20
2022-09-05T23:17:55.706Z,21.20
2022-09-05T23:20:23.512Z,21.20
2022-09-05T23:22:50.212Z,21.20
2022-09-05T23:25:17.617Z,21.20
2022-09-05T23:27:44.501Z,21.10
2022-09-05T23:30:11.738Z,21.20
2022-09-05T23:32:47.465Z,21.20
2022-09-05T23:35:15.200Z,21.20
2022-09-05T23:37:46.164Z,21.20
2022-09-05T23:40:21.685Z,21.20
2022-09-05T23:43:00.874Z,21.20
2022-09-05T23:45:28.430Z,21.20
2022-09-05T23:47:57.309Z,21.20
2022-09-05T23:50:24.794Z,21.20
2022-09-05T23:52:51.623Z,21.20
2022-09-05T23:55:20.220Z,21.20
2022-09-05T23:57:47.142Z,21.20
